createdAt,value
2017-04-21T00:00:26.638Z,8.78
2017-04-21T00:01:27.390Z,8.78
2017-04-21T00:02:28.096Z,8.81
2017-04-21T00:03:28.818Z,8.69
2017-04-21T00:04:29.542Z,8.74
2017-04-21T00:05:30.262Z,8.79
2017-04-21T00:06:30.999Z,8.85
2017-04-21T00:07:31.715Z,8.79
2017-04-21T00:08:32.455Z,8.78
2017-04-21T00:09:33.216Z,8.82
2017-04-21T00:10:33.940Z,8.82
2017-04-21T00:11:34.676Z,8.81
2017-04-21T00:12:35.410Z,8.81
2017-04-21T00:13:36.164Z,8.84
2017-04-21T00:14:36.881Z,8.76
2017-04-21T00:15:37.606Z,8.85
2017-04-21T00:16:38.337Z,8.76
2017-04-21T00:17:39.116Z,8.7
2017-04-21T00:18:39.853Z,8.7
2017-04-21T00:19:40.580Z,8.78
2017-04-21T00:20:41.330Z,8.76
2017-04-21T00:21:42.060Z,8.69
2017-04-21T00:22:42.824Z,8.6
2017-04-21T00:23:43.627Z,8.69
2017-04-21T00:24:44.363Z,8.69
2017-04-21T00:25:45.089Z,8.63
2017-04-21T00:26:45.800Z,8.67
2017-04-21T00:27:46.509Z,8.67
2017-04-21T00:28:47.237Z,8.69
2017-04-21T00:29:47.984Z,8.67
2017-04-21T00:30:48.687Z,8.71
2017-04-21T00:31:49.406Z,8.69
2017-04-21T00:32:50.128Z,8.63
2017-04-21T00:33:50.852Z,8.7
2017-04-21T00:34:51.577Z,8.61
2017-04-21T00:35:52.326Z,8.64
2017-04-21T00:36:53.056Z,8.67
2017-04-21T00:37:53.762Z,8.66
2017-04-21T00:38:54.473Z,8.69
2017-04-21T00:39:55.215Z,8.6
2017-04-21T00:40:55.927Z,8.61
2017-04-21T00:41:56.654Z,8.69
2017-04-21T00:42:57.391Z,8.6
2017-04-21T00:43:58.094Z,8.7
2017-04-21T00:44:58.826Z,8.67
2017-04-21T00:45:59.533Z,8.71
2017-04-21T00:47:00.251Z,8.69
2017-04-21T00:48:00.991Z,8.78
2017-04-21T00:49:01.721Z,8.73
2017-04-21T00:50:02.438Z,8.73
2017-04-21T00:51:03.186Z,8.71
2017-04-21T00:52:03.924Z,8.71
2017-04-21T00:53:04.664Z,8.69
2017-04-21T00:54:05.421Z,8.76
2017-04-21T00:55:06.130Z,8.71
2017-04-21T00:56:06.834Z,8.71
2017-04-21T00:57:07.550Z,8.76
2017-04-21T00:58:08.263Z,8.69
2017-04-21T00:59:09.034Z,8.76
2017-04-21T01:00:09.744Z,8.71
2017-04-21T01:01:10.452Z,8.71
2017-04-21T01:02:11.166Z,8.76
2017-04-21T01:03:11.898Z,8.71
2017-04-21T01:04:12.608Z,8.71
2017-04-21T01:05:13.371Z,8.7
2017-04-21T01:06:14.104Z,8.71
2017-04-21T01:07:14.839Z,8.76
2017-04-21T01:08:15.575Z,8.76
2017-04-21T01:09:16.285Z,8.73
2017-04-21T01:10:17.008Z,8.71
2017-04-21T01:11:17.727Z,8.69
2017-04-21T01:12:18.447Z,8.76
2017-04-21T01:13:19.180Z,8.7
2017-04-21T01:14:19.906Z,8.81
2017-04-21T01:15:20.622Z,8.73
2017-04-21T01:16:21.343Z,8.79
2017-04-21T01:17:22.066Z,8.78
2017-04-21T01:18:22.793Z,8.79
2017-04-21T01:19:23.519Z,8.82
2017-04-21T01:20:24.235Z,8.7
2017-04-21T01:21:24.960Z,8.76
2017-04-21T01:22:25.694Z,8.81
2017-04-21T01:23:26.441Z,8.79
2017-04-21T01:24:27.202Z,8.81
2017-04-21T01:25:27.904Z,8.84
2017-04-21T01:26:28.638Z,8.87
2017-04-21T01:27:29.353Z,8.7
2017-04-21T01:28:30.125Z,8.74
2017-04-21T01:29:30.875Z,8.73
2017-04-21T01:30:31.591Z,8.76
2017-04-21T01:31:32.340Z,8.79
2017-04-21T01:32:33.040Z,8.79
2017-04-21T01:33:33.780Z,8.82
2017-04-21T01:34:34.504Z,8.79
2017-04-21T01:35:35.238Z,8.79
2017-04-21T01:36:35.991Z,8.88
2017-04-21T01:37:36.712Z,8.79
2017-04-21T01:38:44.077Z,8.81
2017-04-21T01:39:44.779Z,8.73
2017-04-21T01:40:45.499Z,8.87
2017-04-21T01:41:46.217Z,8.81
2017-04-21T01:42:46.917Z,8.89
2017-04-21T01:43:47.654Z,8.91
2017-04-21T01:44:48.376Z,8.81
2017-04-21T01:45:49.127Z,8.84
2017-04-21T01:46:49.857Z,8.94
2017-04-21T01:47:50.581Z,8.91
2017-04-21T01:48:51.297Z,8.81
2017-04-21T01:49:52.028Z,8.87
2017-04-21T01:50:52.773Z,8.84
2017-04-21T01:51:53.478Z,8.91
2017-04-21T01:52:54.207Z,8.89
2017-04-21T01:53:54.913Z,8.89
2017-04-21T01:54:55.642Z,8.87
2017-04-21T01:55:56.381Z,8.91
2017-04-21T01:56:57.118Z,8.99
2017-04-21T01:57:57.838Z,9
2017-04-21T01:58:58.565Z,8.89
2017-04-21T01:59:59.253Z,8.89
2017-04-21T02:00:59.988Z,8.89
2017-04-21T02:02:00.703Z,8.89
2017-04-21T02:03:01.430Z,8.89
2017-04-21T02:04:02.158Z,8.88
2017-04-21T02:05:02.900Z,8.94
2017-04-21T02:06:03.647Z,8.91
2017-04-21T02:07:04.350Z,8.97
2017-04-21T02:08:05.071Z,8.89
2017-04-21T02:09:05.785Z,8.91
2017-04-21T02:10:06.498Z,8.81
2017-04-21T02:11:07.232Z,8.81
2017-04-21T02:12:07.938Z,8.81
2017-04-21T02:13:08.698Z,8.85
2017-04-21T02:14:09.397Z,8.84
2017-04-21T02:15:10.109Z,8.89
2017-04-21T02:16:10.835Z,8.88
2017-04-21T02:17:11.568Z,8.81
2017-04-21T02:18:12.315Z,8.82
2017-04-21T02:19:13.045Z,8.91
2017-04-21T02:20:13.760Z,8.92
2017-04-21T02:21:14.483Z,8.88
2017-04-21T02:22:15.197Z,8.91
2017-04-21T02:23:15.935Z,8.87
2017-04-21T02:24:16.620Z,8.94
2017-04-21T02:25:17.345Z,8.89
2017-04-21T02:26:18.108Z,8.91
2017-04-21T02:27:18.826Z,8.88
2017-04-21T02:28:19.532Z,8.89
2017-04-21T02:29:20.271Z,8.85
2017-04-21T02:30:20.972Z,8.92
2017-04-21T02:31:21.685Z,8.95
2017-04-21T02:32:22.419Z,8.79
2017-04-21T02:33:23.184Z,8.84
2017-04-21T02:34:23.880Z,8.79
2017-04-21T02:35:24.578Z,8.74
2017-04-21T02:36:25.303Z,8.78
2017-04-21T02:37:26.030Z,8.78
2017-04-21T02:38:26.809Z,8.81
2017-04-21T02:39:27.531Z,8.82
2017-04-21T02:40:28.249Z,8.81
2017-04-21T02:41:28.975Z,8.91
2017-04-21T02:42:29.705Z,8.78
2017-04-21T02:43:30.425Z,8.88
2017-04-21T02:44:31.141Z,8.89
2017-04-21T02:45:31.860Z,8.85
2017-04-21T02:46:32.593Z,8.89
2017-04-21T02:47:33.344Z,8.85
2017-04-21T02:48:34.041Z,8.92
2017-04-21T02:49:34.756Z,8.94
2017-04-21T02:50:35.490Z,8.84
2017-04-21T02:51:36.218Z,8.81
2017-04-21T02:52:36.954Z,8.85
2017-04-21T02:53:37.666Z,8.78
2017-04-21T02:54:38.426Z,8.82
2017-04-21T02:55:39.174Z,8.79
2017-04-21T02:56:39.876Z,8.76
2017-04-21T02:57:40.611Z,8.81
2017-04-21T02:58:41.339Z,8.84
2017-04-21T02:59:42.081Z,8.81
2017-04-21T03:00:42.791Z,8.76
2017-04-21T03:01:43.517Z,8.71
2017-04-21T03:02:44.240Z,8.78
2017-04-21T03:03:44.943Z,8.84
2017-04-21T03:04:45.668Z,8.82
2017-04-21T03:05:46.400Z,8.7
2017-04-21T03:06:47.113Z,8.71
2017-04-21T03:07:47.863Z,8.71
2017-04-21T03:08:48.596Z,8.76
2017-04-21T03:09:49.412Z,8.71
2017-04-21T03:10:50.082Z,8.78
2017-04-21T03:11:50.807Z,8.78
2017-04-21T03:12:51.476Z,8.71
2017-04-21T03:13:52.151Z,8.7
2017-04-21T03:14:52.833Z,8.71
2017-04-21T03:15:53.495Z,8.71
2017-04-21T03:16:54.172Z,8.7
2017-04-21T03:17:54.845Z,8.7
2017-04-21T03:18:55.513Z,8.76
2017-04-21T03:19:56.184Z,8.76
2017-04-21T03:20:56.855Z,8.71
2017-04-21T03:21:57.531Z,8.58
2017-04-21T03:22:58.206Z,8.74
2017-04-21T03:23:58.906Z,8.63
2017-04-21T03:24:59.596Z,8.63
2017-04-21T03:26:00.271Z,8.7
2017-04-21T03:27:00.970Z,8.64
2017-04-21T03:28:01.641Z,8.61
2017-04-21T03:29:02.353Z,8.64
2017-04-21T03:30:03.011Z,8.67
2017-04-21T03:31:03.711Z,8.63
2017-04-21T03:32:04.485Z,8.52
2017-04-21T03:33:05.182Z,8.58
2017-04-21T03:34:05.869Z,8.6
2017-04-21T03:35:06.538Z,8.61
2017-04-21T03:36:07.202Z,8.64
2017-04-21T03:37:07.887Z,8.63
2017-04-21T03:38:08.650Z,8.67
2017-04-21T03:39:09.329Z,8.63
2017-04-21T03:40:10.020Z,8.64
2017-04-21T03:41:10.711Z,8.71
2017-04-21T03:42:11.521Z,8.66
2017-04-21T03:43:12.250Z,8.69
2017-04-21T03:44:12.947Z,8.58
2017-04-21T03:45:13.604Z,8.66
2017-04-21T03:46:14.291Z,8.63
2017-04-21T03:47:15.086Z,8.61
2017-04-21T03:48:15.737Z,8.63
2017-04-21T03:49:16.426Z,8.69
2017-04-21T03:50:17.104Z,8.67
2017-04-21T03:51:17.803Z,8.64
2017-04-21T03:52:18.495Z,8.69
2017-04-21T03:53:19.169Z,8.7
2017-04-21T03:54:19.860Z,8.71
2017-04-21T03:55:20.543Z,8.69
2017-04-21T03:56:21.216Z,8.7
2017-04-21T03:57:21.913Z,8.7
2017-04-21T03:58:22.578Z,8.71
2017-04-21T03:59:23.279Z,8.71
2017-04-21T04:00:23.975Z,8.7
2017-04-21T04:01:24.625Z,8.71
2017-04-21T04:02:25.365Z,8.7
2017-04-21T04:03:26.075Z,8.76
2017-04-21T04:04:26.770Z,8.66
2017-04-21T04:05:27.439Z,8.74
2017-04-21T04:06:28.134Z,8.74
2017-04-21T04:07:28.818Z,8.73
2017-04-21T04:08:29.486Z,8.7
2017-04-21T04:09:30.155Z,8.76
2017-04-21T04:10:30.824Z,8.73
2017-04-21T04:11:31.501Z,8.61
2017-04-21T04:12:32.170Z,8.6
2017-04-21T04:13:32.863Z,8.69
2017-04-21T04:14:33.554Z,8.69
2017-04-21T04:15:34.239Z,8.71
2017-04-21T04:16:34.966Z,8.74
2017-04-21T04:17:35.629Z,8.76
2017-04-21T04:18:36.310Z,8.71
2017-04-21T04:19:36.985Z,8.71
2017-04-21T04:20:37.652Z,8.74
2017-04-21T04:21:38.323Z,8.78
2017-04-21T04:22:38.994Z,8.73
2017-04-21T04:23:39.693Z,8.73
2017-04-21T04:24:40.369Z,8.71
2017-04-21T04:25:41.035Z,8.7
2017-04-21T04:26:41.743Z,8.69
2017-04-21T04:27:42.408Z,8.71
2017-04-21T04:28:43.088Z,8.71
2017-04-21T04:29:43.795Z,8.7
2017-04-21T04:30:44.457Z,8.76
2017-04-21T04:31:45.511Z,8.78
2017-04-21T04:32:46.283Z,8.74
2017-04-21T04:33:47.006Z,8.71
2017-04-21T04:34:48.043Z,8.73
2017-04-21T04:35:48.757Z,8.71
2017-04-21T04:36:49.449Z,8.74
2017-04-21T04:37:50.119Z,8.71
2017-04-21T04:38:50.804Z,8.76
2017-04-21T04:39:51.501Z,8.69
2017-04-21T04:40:52.173Z,8.71
2017-04-21T04:41:52.851Z,8.69
2017-04-21T04:42:53.516Z,8.73
2017-04-21T04:43:54.199Z,8.71
2017-04-21T04:44:54.865Z,8.74
2017-04-21T04:45:55.547Z,8.71
2017-04-21T04:46:56.220Z,8.71
2017-04-21T04:47:56.894Z,8.79
2017-04-21T04:48:57.572Z,8.74
2017-04-21T04:49:58.237Z,8.73
2017-04-21T04:50:58.915Z,8.79
2017-04-21T04:51:59.590Z,8.81
2017-04-21T04:53:00.253Z,8.81
2017-04-21T04:54:00.923Z,8.85
2017-04-21T04:55:01.594Z,8.78
2017-04-21T04:56:02.272Z,8.94
2017-04-21T04:57:02.992Z,8.92
2017-04-21T04:58:03.668Z,8.89
2017-04-21T04:59:04.350Z,8.92
2017-04-21T05:00:05.057Z,8.94
2017-04-21T05:01:05.786Z,8.92
2017-04-21T05:02:07.241Z,8.89
2017-04-21T05:03:07.947Z,8.89
2017-04-21T05:04:08.618Z,8.88
2017-04-21T05:05:09.283Z,8.92
2017-04-21T05:06:10.007Z,8.97
2017-04-21T05:07:10.740Z,8.99
2017-04-21T05:08:11.422Z,9
2017-04-21T05:09:12.255Z,9.1
2017-04-21T05:10:13.013Z,9.13
2017-04-21T05:11:14.363Z,9.04
2017-04-21T05:12:14.829Z,9.06
2017-04-21T05:13:15.588Z,9.1
2017-04-21T05:14:16.460Z,9.11
2017-04-21T05:15:17.155Z,9.13
2017-04-21T05:16:17.867Z,9.14
2017-04-21T05:17:18.747Z,9.08
2017-04-21T05:18:19.492Z,9.06
2017-04-21T05:19:20.228Z,9.04
2017-04-21T05:20:20.919Z,9.06
2017-04-21T05:21:21.659Z,9.04
2017-04-21T05:22:22.570Z,9
2017-04-21T05:23:23.238Z,9.11
2017-04-21T05:24:23.918Z,9.03
2017-04-21T05:25:24.612Z,9.06
2017-04-21T05:26:25.580Z,9.03
2017-04-21T05:27:26.301Z,9.08
2017-04-21T05:28:27.004Z,9.03
2017-04-21T05:29:27.730Z,9
2017-04-21T05:30:28.397Z,8.99
2017-04-21T05:31:29.071Z,9.02
2017-04-21T05:32:29.748Z,9.13
2017-04-21T05:33:30.816Z,9.08
2017-04-21T05:34:31.610Z,9.08
2017-04-21T05:35:32.389Z,9.13
2017-04-21T05:36:33.103Z,9.1
2017-04-21T05:37:33.825Z,9.04
2017-04-21T05:38:34.541Z,9.11
2017-04-21T05:39:35.229Z,9.04
2017-04-21T05:40:35.922Z,9.02
2017-04-21T05:41:36.645Z,9.1
2017-04-21T05:42:37.350Z,9.04
2017-04-21T05:43:38.025Z,9.08
2017-04-21T05:44:38.760Z,9.14
2017-04-21T05:45:39.428Z,9.18
2017-04-21T05:46:40.127Z,9.18
2017-04-21T05:47:40.804Z,9.16
2017-04-21T05:48:41.495Z,9.21
2017-04-21T05:49:42.180Z,9.21
2017-04-21T05:50:42.869Z,9.18
2017-04-21T05:51:43.614Z,9.23
2017-04-21T05:52:44.355Z,9.26
2017-04-21T05:53:45.050Z,9.29
2017-04-21T05:54:45.767Z,9.26
2017-04-21T05:55:46.451Z,9.31
2017-04-21T05:56:47.115Z,9.26
2017-04-21T05:57:47.862Z,9.28
2017-04-21T05:58:48.557Z,9.29
2017-04-21T05:59:49.229Z,9.32
2017-04-21T06:00:49.930Z,9.31
2017-04-21T06:01:50.705Z,9.5
2017-04-21T06:02:51.391Z,9.48
2017-04-21T06:03:52.075Z,9.64
2017-04-21T06:04:52.812Z,9.62
2017-04-21T06:05:53.530Z,9.61
2017-04-21T06:06:54.199Z,9.64
2017-04-21T06:07:54.919Z,9.58
2017-04-21T06:08:55.645Z,9.65
2017-04-21T06:09:56.364Z,9.64
2017-04-21T06:10:57.089Z,9.68
2017-04-21T06:11:57.760Z,9.66
2017-04-21T06:12:58.445Z,9.65
2017-04-21T06:13:59.148Z,9.65
2017-04-21T06:14:59.874Z,9.64
2017-04-21T06:16:00.564Z,9.66
2017-04-21T06:17:01.261Z,9.65
2017-04-21T06:18:01.947Z,9.62
2017-04-21T06:19:02.629Z,9.65
2017-04-21T06:20:03.301Z,9.65
2017-04-21T06:21:03.976Z,9.64
2017-04-21T06:22:04.644Z,9.66
2017-04-21T06:23:05.383Z,9.65
2017-04-21T06:24:06.036Z,9.74
2017-04-21T06:25:06.713Z,9.76
2017-04-21T06:26:07.398Z,9.79
2017-04-21T06:27:08.100Z,9.74
2017-04-21T06:28:08.848Z,9.69
2017-04-21T06:29:09.558Z,9.86
2017-04-21T06:30:10.265Z,9.84
2017-04-21T06:31:10.934Z,9.84
2017-04-21T06:32:11.614Z,9.8
2017-04-21T06:33:12.292Z,9.86
2017-04-21T06:34:12.983Z,9.87
2017-04-21T06:35:13.693Z,9.92
2017-04-21T06:36:14.412Z,9.86
2017-04-21T06:37:15.097Z,9.91
2017-04-21T06:38:15.800Z,9.84
2017-04-21T06:39:16.475Z,9.84
2017-04-21T06:40:17.171Z,9.77
2017-04-21T06:41:17.869Z,9.94
2017-04-21T06:42:18.600Z,9.95
2017-04-21T06:43:19.322Z,9.89
2017-04-21T06:44:20.376Z,9.98
2017-04-21T06:45:21.863Z,9.98
2017-04-21T06:46:22.591Z,9.98
2017-04-21T06:47:23.334Z,9.92
2017-04-21T06:48:24.078Z,10.05
2017-04-21T06:49:24.782Z,9.94
2017-04-21T06:50:25.517Z,10.05
2017-04-21T06:51:27.243Z,10.1
2017-04-21T06:52:29.650Z,10.02
2017-04-21T06:53:32.331Z,9.92
2017-04-21T06:54:34.796Z,10.05
2017-04-21T06:55:36.065Z,9.99
2017-04-21T06:56:37.646Z,10.09
2017-04-21T06:57:38.304Z,10.09
2017-04-21T06:58:39.025Z,10.15
2017-04-21T06:59:40.511Z,10.07
2017-04-21T07:00:41.232Z,10.04
2017-04-21T07:01:41.961Z,10.07
2017-04-21T07:02:42.672Z,10.1
2017-04-21T07:03:43.415Z,10.05
2017-04-21T07:04:44.121Z,10.09
2017-04-21T07:05:45.394Z,10.13
2017-04-21T07:06:46.091Z,10.04
2017-04-21T07:07:46.796Z,10.15
2017-04-21T07:08:47.504Z,10.05
2017-04-21T07:09:48.223Z,10.07
2017-04-21T07:10:48.941Z,10.2
2017-04-21T07:11:49.705Z,10.15
2017-04-21T07:12:50.441Z,10.28
2017-04-21T07:13:51.175Z,10.26
2017-04-21T07:14:51.971Z,10.26
2017-04-21T07:15:52.708Z,10.31
2017-04-21T07:16:53.387Z,10.25
2017-04-21T07:17:54.137Z,10.28
2017-04-21T07:18:54.858Z,10.3
2017-04-21T07:19:55.582Z,10.34
2017-04-21T07:20:56.273Z,10.37
2017-04-21T07:21:56.957Z,10.41
2017-04-21T07:22:57.647Z,10.41
2017-04-21T07:23:58.356Z,10.44
2017-04-21T07:24:59.078Z,10.51
2017-04-21T07:25:59.786Z,10.53
2017-04-21T07:27:00.470Z,10.56
2017-04-21T07:28:01.194Z,10.59
2017-04-21T07:29:01.908Z,10.6
2017-04-21T07:30:02.618Z,10.51
2017-04-21T07:31:03.308Z,10.51
2017-04-21T07:32:04.032Z,10.54
2017-04-21T07:33:04.746Z,10.53
2017-04-21T07:34:05.441Z,10.64
2017-04-21T07:35:06.140Z,10.67
2017-04-21T07:36:06.901Z,10.54
2017-04-21T07:37:07.604Z,10.6
2017-04-21T07:38:08.319Z,10.61
2017-04-21T07:39:09.012Z,10.72
2017-04-21T07:40:09.763Z,10.69
2017-04-21T07:41:10.459Z,10.61
2017-04-21T07:42:11.160Z,10.67
2017-04-21T07:43:11.877Z,10.6
2017-04-21T07:44:12.559Z,10.72
2017-04-21T07:45:13.250Z,10.64
2017-04-21T07:46:13.932Z,10.74
2017-04-21T07:47:14.630Z,10.64
2017-04-21T07:48:15.343Z,10.71
2017-04-21T07:49:16.029Z,10.67
2017-04-21T07:50:16.701Z,10.61
2017-04-21T07:51:17.365Z,10.72
2017-04-21T07:52:18.040Z,10.67
2017-04-21T07:53:18.716Z,10.69
2017-04-21T07:54:19.424Z,10.72
2017-04-21T07:55:20.132Z,10.84
2017-04-21T07:56:21.063Z,10.86
2017-04-21T07:57:21.729Z,10.92
2017-04-21T07:58:22.456Z,11.02
2017-04-21T07:59:23.148Z,11.07
2017-04-21T08:00:23.855Z,11.14
2017-04-21T08:01:24.540Z,11.14
2017-04-21T08:02:25.281Z,11.12
2017-04-21T08:03:25.972Z,11.14
2017-04-21T08:04:26.673Z,11.3
2017-04-21T08:05:27.386Z,11.5
2017-04-21T08:06:28.073Z,11.5
2017-04-21T08:07:28.756Z,11.62
2017-04-21T08:08:29.438Z,11.65
2017-04-21T08:09:30.139Z,11.57
2017-04-21T08:10:30.839Z,11.7
2017-04-21T08:11:31.535Z,11.73
2017-04-21T08:12:32.213Z,11.75
2017-04-21T08:13:32.920Z,11.7
2017-04-21T08:14:33.628Z,11.9
2017-04-21T08:15:34.370Z,11.91
2017-04-21T08:16:35.077Z,11.83
2017-04-21T08:17:36.083Z,11.72
2017-04-21T08:18:38.314Z,11.75
2017-04-21T08:19:40.793Z,11.95
2017-04-21T08:20:43.040Z,12.15
2017-04-21T08:21:43.747Z,12.21
2017-04-21T08:22:44.422Z,12.39
2017-04-21T08:23:45.145Z,12.49
2017-04-21T08:24:45.843Z,12.55
2017-04-21T08:25:46.581Z,12.4
2017-04-21T08:26:47.298Z,12.7
2017-04-21T08:27:48.018Z,12.79
2017-04-21T08:28:48.720Z,12.68
2017-04-21T08:29:49.430Z,12.76
2017-04-21T08:30:50.103Z,12.91
2017-04-21T08:31:50.798Z,13.27
2017-04-21T08:32:51.487Z,13.3
2017-04-21T08:33:52.215Z,13.7
2017-04-21T08:34:52.949Z,13.92
2017-04-21T08:35:53.631Z,14.14
2017-04-21T08:36:54.358Z,14.25
2017-04-21T08:37:55.064Z,14.26
2017-04-21T08:38:55.794Z,14.45
2017-04-21T08:39:56.565Z,14.47
2017-04-21T08:40:57.262Z,14.29
2017-04-21T08:41:57.965Z,14.14
2017-04-21T08:42:58.674Z,13.93
2017-04-21T08:43:59.402Z,13.97
2017-04-21T08:45:00.088Z,13.9
2017-04-21T08:46:00.806Z,13.83
2017-04-21T08:47:01.530Z,13.54
2017-04-21T08:48:02.227Z,13.59
2017-04-21T08:49:02.950Z,13.62
2017-04-21T08:50:03.695Z,13.65
2017-04-21T08:51:04.428Z,13.67
2017-04-21T08:52:05.149Z,13.72
2017-04-21T08:53:05.882Z,13.96
2017-04-21T08:54:06.588Z,14.23
2017-04-21T08:55:07.326Z,14.33
2017-04-21T08:56:08.013Z,14.44
2017-04-21T08:57:08.721Z,14.53
2017-04-21T08:58:09.446Z,14.68
2017-04-21T08:59:10.141Z,14.84
2017-04-21T09:00:10.874Z,14.58
2017-04-21T09:01:11.583Z,14.84
2017-04-21T09:02:12.288Z,15.02
2017-04-21T09:03:12.994Z,15.02
2017-04-21T09:04:13.720Z,15.04
2017-04-21T09:05:14.445Z,15.06
2017-04-21T09:06:15.180Z,15.27
2017-04-21T09:07:15.913Z,15.28
2017-04-21T09:08:16.630Z,14.96
2017-04-21T09:09:17.341Z,14.91
2017-04-21T09:10:18.050Z,15.03
2017-04-21T09:11:18.748Z,15
2017-04-21T09:12:19.516Z,15.1
2017-04-21T09:13:20.246Z,15
2017-04-21T09:14:20.987Z,14.92
2017-04-21T09:15:21.698Z,15.04
2017-04-21T09:16:22.423Z,15.1
2017-04-21T09:17:23.135Z,15.17
2017-04-21T09:18:23.965Z,15.36
2017-04-21T09:19:24.974Z,15.59
2017-04-21T09:20:25.673Z,15.4
2017-04-21T09:21:26.411Z,15.22
2017-04-21T09:22:27.119Z,15.4
2017-04-21T09:23:27.813Z,15.61
2017-04-21T09:24:28.515Z,15.68
2017-04-21T09:25:29.232Z,15.64
2017-04-21T09:26:29.917Z,15.62
2017-04-21T09:27:30.660Z,15.7
2017-04-21T09:28:31.379Z,15.72
2017-04-21T09:29:32.132Z,15.68
2017-04-21T09:30:32.846Z,15.62
2017-04-21T09:31:33.564Z,15.64
2017-04-21T09:32:34.278Z,15.65
2017-04-21T09:33:35.027Z,15.75
2017-04-21T09:34:35.757Z,15.65
2017-04-21T09:35:36.480Z,15.67
2017-04-21T09:36:37.220Z,15.67
2017-04-21T09:37:37.948Z,15.73
2017-04-21T09:38:38.670Z,15.64
2017-04-21T09:39:39.370Z,15.42
2017-04-21T09:40:40.104Z,15.37
2017-04-21T09:41:40.822Z,15.35
2017-04-21T09:42:41.570Z,15.21
2017-04-21T09:43:42.223Z,15.1
2017-04-21T09:44:42.951Z,15
2017-04-21T09:45:43.641Z,14.92
2017-04-21T09:46:44.378Z,14.89
2017-04-21T09:47:45.074Z,14.86
2017-04-21T09:48:45.784Z,14.97
2017-04-21T09:49:46.519Z,15.07
2017-04-21T09:50:47.201Z,15.11
2017-04-21T09:51:47.895Z,15.02
2017-04-21T09:52:48.597Z,15.02
2017-04-21T09:53:49.310Z,15.15
2017-04-21T09:54:50.039Z,14.96
2017-04-21T09:55:50.711Z,14.89
2017-04-21T09:56:51.452Z,14.79
2017-04-21T09:57:52.155Z,14.72
2017-04-21T09:58:52.849Z,14.63
2017-04-21T09:59:53.601Z,14.51
2017-04-21T10:00:54.302Z,14.47
2017-04-21T10:01:54.992Z,14.5
2017-04-21T10:02:55.701Z,14.35
2017-04-21T10:03:56.450Z,14.3
2017-04-21T10:04:57.166Z,14.25
2017-04-21T10:05:57.837Z,14.37
2017-04-21T10:06:58.519Z,14.18
2017-04-21T10:07:59.263Z,14.08
2017-04-21T10:08:59.997Z,14.15
2017-04-21T10:10:00.681Z,14.07
2017-04-21T10:11:01.389Z,14.14
2017-04-21T10:12:02.081Z,14.07
2017-04-21T10:13:02.798Z,14.18
2017-04-21T10:14:03.537Z,14.28
2017-04-21T10:15:04.243Z,14.28
2017-04-21T10:16:04.968Z,14.29
2017-04-21T10:17:05.788Z,14.36
2017-04-21T10:18:06.501Z,14.3
2017-04-21T10:19:07.199Z,14.43
2017-04-21T10:20:07.933Z,14.44
2017-04-21T10:21:08.638Z,14.4
2017-04-21T10:22:09.361Z,14.37
2017-04-21T10:23:10.077Z,14.35
2017-04-21T10:24:10.833Z,14.47
2017-04-21T10:25:11.662Z,14.54
2017-04-21T10:26:12.359Z,14.55
2017-04-21T10:27:13.047Z,14.77
2017-04-21T10:28:13.719Z,14.91
2017-04-21T10:29:14.472Z,15.02
2017-04-21T10:30:15.202Z,15.07
2017-04-21T10:31:15.938Z,15.18
2017-04-21T10:32:16.662Z,15.21
2017-04-21T10:33:17.402Z,15.36
2017-04-21T10:34:18.121Z,15.4
2017-04-21T10:35:18.815Z,15.43
2017-04-21T10:36:19.548Z,15.36
2017-04-21T10:37:20.269Z,15.31
2017-04-21T10:38:20.994Z,15.25
2017-04-21T10:39:21.688Z,15.28
2017-04-21T10:40:22.429Z,15.43
2017-04-21T10:41:23.112Z,15.55
2017-04-21T10:42:23.791Z,15.62
2017-04-21T10:43:24.492Z,15.61
2017-04-21T10:44:25.215Z,15.76
2017-04-21T10:45:26.006Z,15.76
2017-04-21T10:46:26.744Z,15.65
2017-04-21T10:47:27.452Z,15.61
2017-04-21T10:48:28.183Z,15.65
2017-04-21T10:49:28.972Z,15.55
2017-04-21T10:50:29.707Z,15.7
2017-04-21T10:51:30.410Z,15.62
2017-04-21T10:52:31.252Z,15.49
2017-04-21T10:53:31.964Z,15.55
2017-04-21T10:54:32.733Z,15.55
2017-04-21T10:55:33.523Z,15.7
2017-04-21T10:56:34.927Z,15.62
2017-04-21T10:57:35.648Z,15.65
2017-04-21T10:58:36.354Z,15.67
2017-04-21T10:59:37.075Z,15.76
2017-04-21T11:00:37.781Z,15.76
2017-04-21T11:01:38.472Z,15.72
2017-04-21T11:02:39.185Z,15.7
2017-04-21T11:03:39.937Z,15.82
2017-04-21T11:04:40.767Z,15.88
2017-04-21T11:05:41.615Z,15.84
2017-04-21T11:06:42.387Z,15.83
2017-04-21T11:07:43.224Z,16
2017-04-21T11:08:43.984Z,15.92
2017-04-21T11:09:44.675Z,16.04
2017-04-21T11:10:45.391Z,16.01
2017-04-21T11:11:46.111Z,15.94
2017-04-21T11:12:46.833Z,15.91
2017-04-21T11:13:47.556Z,15.83
2017-04-21T11:14:48.265Z,15.79
2017-04-21T11:15:49.051Z,15.86
2017-04-21T11:16:49.768Z,15.84
2017-04-21T11:17:50.501Z,15.86
2017-04-21T11:18:51.266Z,15.88
2017-04-21T11:19:52.020Z,15.8
2017-04-21T11:20:52.762Z,15.73
2017-04-21T11:21:53.443Z,15.79
2017-04-21T11:22:54.190Z,15.61
2017-04-21T11:23:54.963Z,15.58
2017-04-21T11:24:55.688Z,15.73
2017-04-21T11:25:56.377Z,15.58
2017-04-21T11:26:57.169Z,15.73
2017-04-21T11:27:57.984Z,15.8
2017-04-21T11:28:58.792Z,15.86
2017-04-21T11:29:59.567Z,15.9
2017-04-21T11:31:00.382Z,15.83
2017-04-21T11:32:01.233Z,15.95
2017-04-21T11:33:01.986Z,16.12
2017-04-21T11:34:02.739Z,16.09
2017-04-21T11:35:04.332Z,16.13
2017-04-21T11:36:05.141Z,16.26
2017-04-21T11:37:05.818Z,16.2
2017-04-21T11:38:06.527Z,16.04
2017-04-21T11:39:07.313Z,16.13
2017-04-21T11:40:08.004Z,16.08
2017-04-21T11:41:08.712Z,16.02
2017-04-21T11:42:09.428Z,16.05
2017-04-21T11:43:10.143Z,16.09
2017-04-21T11:44:10.839Z,15.9
2017-04-21T11:45:11.552Z,15.97
2017-04-21T11:46:12.295Z,16.09
2017-04-21T11:47:13.019Z,16.09
2017-04-21T11:48:13.734Z,16
2017-04-21T11:49:14.492Z,16
2017-04-21T11:50:15.219Z,16.01
2017-04-21T11:51:15.916Z,16
2017-04-21T11:52:16.638Z,15.98
2017-04-21T11:53:17.350Z,15.9
2017-04-21T11:54:18.083Z,15.68
2017-04-21T11:55:18.797Z,15.59
2017-04-21T11:56:19.531Z,15.57
2017-04-21T11:57:20.213Z,15.54
2017-04-21T11:58:20.911Z,15.35
2017-04-21T11:59:21.630Z,15.25
2017-04-21T12:00:22.319Z,15.15
2017-04-21T12:01:22.994Z,15.31
2017-04-21T12:02:23.755Z,15.18
2017-04-21T12:03:24.479Z,15.14
2017-04-21T12:04:25.183Z,15.18
2017-04-21T12:05:25.905Z,15.14
2017-04-21T12:06:26.632Z,15.19
2017-04-21T12:07:27.332Z,15.19
2017-04-21T12:08:28.059Z,15.09
2017-04-21T12:09:28.754Z,15.03
2017-04-21T12:10:29.452Z,14.89
2017-04-21T12:11:30.158Z,14.82
2017-04-21T12:12:30.842Z,14.82
2017-04-21T12:13:31.540Z,14.86
2017-04-21T12:14:32.221Z,14.79
2017-04-21T12:15:32.968Z,14.77
2017-04-21T12:16:33.717Z,14.68
2017-04-21T12:17:34.393Z,14.59
2017-04-21T12:18:35.110Z,14.7
2017-04-21T12:19:35.785Z,14.5
2017-04-21T12:20:36.513Z,14.58
2017-04-21T12:21:37.202Z,14.62
2017-04-21T12:22:37.931Z,14.7
2017-04-21T12:23:38.680Z,14.54
2017-04-21T12:24:39.358Z,14.58
2017-04-21T12:25:40.079Z,14.58
2017-04-21T12:26:40.765Z,14.53
2017-04-21T12:27:41.466Z,14.44
2017-04-21T12:28:42.139Z,14.47
2017-04-21T12:29:42.820Z,14.43
2017-04-21T12:30:43.551Z,14.51
2017-04-21T12:31:44.254Z,14.41
2017-04-21T12:32:45.029Z,14.33
2017-04-21T12:33:45.756Z,14.36
2017-04-21T12:34:46.444Z,14.4
2017-04-21T12:35:47.151Z,14.3
2017-04-21T12:36:47.859Z,14.3
2017-04-21T12:37:48.576Z,14.37
2017-04-21T12:38:49.274Z,14.35
2017-04-21T12:39:49.995Z,14.35
2017-04-21T12:40:50.690Z,14.26
2017-04-21T12:41:51.392Z,14.28
2017-04-21T12:42:52.070Z,14.29
2017-04-21T12:43:52.770Z,14.14
2017-04-21T12:44:53.489Z,14.15
2017-04-21T12:45:54.176Z,14.11
2017-04-21T12:46:54.902Z,14.12
2017-04-21T12:47:55.595Z,14.1
2017-04-21T12:48:56.343Z,13.97
2017-04-21T12:49:57.027Z,13.97
2017-04-21T12:50:57.742Z,13.87
2017-04-21T12:51:58.423Z,13.9
2017-04-21T12:52:59.135Z,13.86
2017-04-21T12:53:59.828Z,13.86
2017-04-21T12:55:00.507Z,13.81
2017-04-21T12:56:01.220Z,13.71
2017-04-21T12:57:01.932Z,13.71
2017-04-21T12:58:02.614Z,13.79
2017-04-21T12:59:03.298Z,13.71
2017-04-21T13:00:04.045Z,13.6
2017-04-21T13:01:04.732Z,13.59
2017-04-21T13:02:05.442Z,13.67
2017-04-21T13:03:06.184Z,13.71
2017-04-21T13:04:06.888Z,13.7
2017-04-21T13:05:07.578Z,13.74
2017-04-21T13:06:08.284Z,13.74
2017-04-21T13:07:09.013Z,13.75
2017-04-21T13:08:09.699Z,13.72
2017-04-21T13:09:10.363Z,13.75
2017-04-21T13:10:11.083Z,13.74
2017-04-21T13:11:11.764Z,13.9
2017-04-21T13:12:12.455Z,13.67
2017-04-21T13:13:13.153Z,13.75
2017-04-21T13:14:13.864Z,13.72
2017-04-21T13:15:14.553Z,13.79
2017-04-21T13:16:15.273Z,13.72
2017-04-21T13:17:15.974Z,13.75
2017-04-21T13:18:16.666Z,13.75
2017-04-21T13:19:17.341Z,13.77